Time;durP1;ratioP1;P1;durP2;ratioP2;P2;SDS_P1;SDS_P2;PMS_P1;PMS_P2;Temp;Humidity;BMP_temperature;BMP_pressure;BME280_temperature;BME280_humidity;BME280_pressure;Samples;Min_cycle;Max_cycle;Signal;HPM_P1;HPM_P2
2022/02/08 00:00:05;;;;;;;4.37;2.70;;;;;;;5.30;80.56;98991.97;5067664;28;20285;-76
2022/02/08 00:02:34;;;;;;;3.63;2.43;;;;;;;5.05;79.68;98961.97;5070336;28;20327;-76
2022/02/08 00:04:59;;;;;;;4.80;3.33;;;;;;;5.34;79.66;99002.03;5071868;28;20104;-76
2022/02/08 00:07:27;;;;;;;4.77;2.43;;;;;;;5.35;79.56;99015.97;5074151;28;20033;-77
2022/02/08 00:09:53;;;;;;;3.77;2.73;;;;;;;5.33;79.83;99012.69;5070313;28;20036;-77
2022/02/08 00:12:18;;;;;;;3.27;2.57;;;;;;;5.30;79.11;99026.09;5066738;28;20040;-77
2022/02/08 00:14:44;;;;;;;5.47;2.70;;;;;;;5.40;79.32;99005.88;5069283;28;20275;-77
2022/02/08 00:17:10;;;;;;;3.57;2.33;;;;;;;5.38;78.92;99024.38;5067303;28;20029;-76
2022/02/08 00:19:36;;;;;;;3.47;2.23;;;;;;;5.23;79.23;98998.78;5070196;28;20037;-79
2022/02/08 00:22:03;;;;;;;3.00;2.50;;;;;;;5.37;78.71;99014.88;5071445;28;20052;-79
2022/02/08 00:24:28;;;;;;;3.20;2.40;;;;;;;5.27;78.29;99011.47;5067902;28;20106;-79
2022/02/08 00:26:54;;;;;;;2.70;2.08;;;;;;;5.27;77.99;99013.25;5066582;28;20366;-79
2022/02/08 00:29:21;;;;;;;3.77;2.20;;;;;;;5.21;78.61;98996.31;5067924;28;20330;-76
2022/02/08 00:31:46;;;;;;;3.77;2.30;;;;;;;5.33;78.17;99020.56;5064127;28;20032;-77
2022/02/08 00:34:12;;;;;;;3.45;2.28;;;;;;;5.31;78.51;99022.50;5071782;28;20055;-77
2022/02/08 00:36:37;;;;;;;2.25;2.05;;;;;;;5.22;78.54;99005.00;5068148;28;20025;-76
2022/02/08 00:39:06;;;;;;;4.30;2.27;;;;;;;5.18;78.49;98995.72;5070254;28;20249;-76
2022/02/08 00:41:32;;;;;;;2.67;2.00;;;;;;;5.31;78.13;98993.63;5064359;28;20024;-77
2022/02/08 00:44:24;;;;;;;2.60;2.08;;;;;;;5.30;78.53;99002.47;5071067;28;20259;-76
2022/02/08 00:46:50;;;;;;;2.03;1.83;;;;;;;5.19;78.18;98998.22;5063972;28;20041;-76
2022/02/08 00:49:16;;;;;;;2.42;2.20;;;;;;;5.25;78.26;99007.34;5071093;28;20067;-76
2022/02/08 00:51:51;;;;;;;2.83;2.30;;;;;;;5.10;78.23;98992.03;5068334;28;20394;-76
2022/02/08 00:54:17;;;;;;;4.72;3.15;;;;;;;5.23;78.40;99025.84;5064578;28;20087;-76
2022/02/08 00:56:43;;;;;;;4.63;2.55;;;;;;;5.24;78.59;99035.38;5068728;28;20029;-76
2022/02/08 00:59:08;;;;;;;2.73;2.43;;;;;;;5.16;78.24;99029.16;5067592;28;20074;-76
2022/02/08 01:01:37;;;;;;;3.15;2.53;;;;;;;5.23;78.29;99025.03;5069339;28;20338;-76
2022/02/08 01:04:05;;;;;;;3.38;2.50;;;;;;;5.26;77.42;99038.69;5069282;28;20230;-76
2022/02/08 01:06:31;;;;;;;3.50;2.50;;;;;;;5.28;77.29;99009.66;5070326;28;20219;-76
2022/02/08 01:09:09;;;;;;;4.10;2.92;;;;;;;5.31;77.13;99025.94;5069608;28;20031;-76
2022/02/08 01:11:34;;;;;;;7.00;3.28;;;;;;;5.29;77.10;99032.31;5068115;28;20036;-76
2022/02/08 01:14:00;;;;;;;2.58;2.38;;;;;;;5.26;77.07;99027.34;5068083;28;20398;-76
2022/02/08 01:16:26;;;;;;;6.25;3.50;;;;;;;5.21;77.43;99024.34;5068623;28;20413;-77
2022/02/08 01:18:55;;;;;;;3.85;2.80;;;;;;;5.10;76.32;99013.03;5068353;28;20028;-77
2022/02/08 01:21:20;;;;;;;3.60;2.90;;;;;;;5.07;76.35;99008.09;5071422;28;20040;-77
2022/02/08 01:23:46;;;;;;;5.23;3.57;;;;;;;5.27;76.28;99039.50;5067604;28;20029;-77
2022/02/08 01:26:15;;;;;;;5.53;3.30;;;;;;;5.20;76.50;99017.41;5066598;28;20114;-76
2022/02/08 01:31:16;;;;;;;4.33;3.20;;;;;;;5.27;75.76;99044.75;5073377;28;20044;-76
2022/02/08 01:38:34;;;;;;;4.63;3.33;;;;;;;4.98;75.91;99029.09;5068000;28;20048;-77
2022/02/08 01:51:53;;;;;;;8.63;4.88;;;;;;;5.06;75.16;99052.84;5074256;28;20037;-76
2022/02/08 01:54:19;;;;;;;6.65;4.20;;;;;;;4.97;74.61;99041.41;5066577;28;20221;-76
2022/02/08 01:56:46;;;;;;;9.37;4.50;;;;;;;4.95;74.08;99048.59;5074118;28;20025;-76
2022/02/08 01:59:13;;;;;;;7.80;4.70;;;;;;;5.09;74.59;99066.50;5070936;28;20040;-77
2022/02/08 02:01:38;;;;;;;7.57;3.83;;;;;;;4.96;74.26;99058.13;5077380;28;20043;-77
2022/02/08 02:04:04;;;;;;;6.03;4.07;;;;;;;5.08;73.90;99059.59;5072413;28;20033;-77
2022/02/08 02:06:30;;;;;;;7.70;4.03;;;;;;;5.18;73.79;99066.59;5073052;28;20262;-76
2022/02/08 02:08:56;;;;;;;6.93;3.23;;;;;;;5.13;73.20;99067.03;5072044;28;20028;-76
2022/02/08 02:11:21;;;;;;;9.70;3.67;;;;;;;5.07;73.27;99065.81;5066628;28;20028;-76
2022/02/08 02:13:49;;;;;;;6.63;4.23;;;;;;;5.18;73.31;99071.84;5071226;28;20075;-76
2022/02/08 02:16:22;;;;;;;10.63;3.97;;;;;;;4.97;73.20;99067.63;5077804;28;20039;-76
2022/02/08 02:18:48;;;;;;;5.87;4.03;;;;;;;4.99;73.06;99070.13;5076855;28;20093;-76
2022/02/08 02:21:15;;;;;;;4.93;3.77;;;;;;;4.83;73.32;99039.25;5071649;28;20102;-76
2022/02/08 02:23:45;;;;;;;10.13;3.83;;;;;;;5.03;72.92;99053.13;5077992;28;20060;-77
2022/02/08 02:26:11;;;;;;;7.70;4.07;;;;;;;4.97;73.04;99051.06;5073435;28;20032;-76
2022/02/08 02:28:37;;;;;;;7.83;3.00;;;;;;;5.10;72.19;99073.38;5067183;28;20040;-77
2022/02/08 02:31:02;;;;;;;3.50;3.20;;;;;;;5.01;72.91;99074.25;5069315;28;20115;-77
2022/02/08 02:33:28;;;;;;;5.37;3.97;;;;;;;5.11;72.20;99076.84;5070773;28;20346;-77
2022/02/08 02:35:54;;;;;;;10.67;4.50;;;;;;;4.89;72.73;99058.81;5073913;28;20028;-77
2022/02/08 02:38:23;;;;;;;7.53;4.13;;;;;;;5.22;71.37;99081.13;5074240;28;20322;-76
2022/02/08 02:40:48;;;;;;;4.87;3.50;;;;;;;5.12;71.81;99081.13;5066321;28;20037;-76
2022/02/08 02:43:14;;;;;;;5.97;3.53;;;;;;;4.94;71.36;99078.41;5070831;28;20036;-76
2022/02/08 02:45:40;;;;;;;6.80;3.50;;;;;;;4.91;71.95;99078.69;5074919;28;20091;-76
2022/02/08 02:48:05;;;;;;;9.50;3.83;;;;;;;4.94;72.12;99077.59;5072190;28;20033;-77
2022/02/08 02:50:31;;;;;;;8.80;3.70;;;;;;;5.00;71.82;99069.16;5066116;28;20097;-77
2022/02/08 02:52:57;;;;;;;8.37;4.20;;;;;;;4.97;71.81;99067.63;5076744;28;20318;-76
2022/02/08 02:55:22;;;;;;;4.47;3.03;;;;;;;4.85;71.88;99066.16;5073984;28;20234;-76
2022/02/08 02:57:52;;;;;;;6.97;3.40;;;;;;;4.85;72.11;99071.41;5071428;28;20036;-77
2022/02/08 03:03:28;;;;;;;7.67;3.53;;;;;;;4.86;72.10;99096.66;5062706;28;20285;-76
2022/02/08 03:19:34;;;;;;;4.47;3.28;;;;;;;4.85;71.60;99099.44;5069659;28;20048;-79
2022/02/08 03:21:59;;;;;;;5.63;2.97;;;;;;;4.91;70.92;99109.34;5068716;28;20104;-79
2022/02/08 03:24:25;;;;;;;7.73;3.70;;;;;;;5.10;70.41;99119.81;5070197;28;20295;-79
2022/02/08 03:26:50;;;;;;;4.90;3.37;;;;;;;5.07;70.91;99128.78;5070610;28;20032;-79
2022/02/08 03:29:16;;;;;;;6.30;3.70;;;;;;;5.18;70.29;99121.72;5067652;28;20096;-80
2022/02/08 03:31:41;;;;;;;6.60;3.77;;;;;;;5.01;70.14;99125.91;5070894;28;20040;-79
2022/02/08 03:34:07;;;;;;;5.30;3.40;;;;;;;5.04;70.29;99118.56;5068233;28;20021;-77
2022/02/08 03:36:32;;;;;;;5.90;3.17;;;;;;;5.14;70.46;99127.25;5072731;28;20033;-78
2022/02/08 03:42:07;;;;;;;8.60;3.23;;;;;;;4.91;70.74;99123.31;5018908;28;20057;-76
2022/02/08 03:44:33;;;;;;;;;;;;;;;4.95;70.60;99144.84;5062953;28;20052;-77
2022/02/08 03:47:05;;;;;;;5.90;2.77;;;;;;;5.01;69.92;99141.66;5068373;28;19913;-76
2022/02/08 03:49:30;;;;;;;3.17;2.75;;;;;;;4.94;70.63;99138.75;5071868;28;20064;-77
2022/02/08 03:52:00;;;;;;;4.17;2.87;;;;;;;4.99;69.46;99154.06;5064630;28;20032;-76
2022/02/08 03:54:25;;;;;;;5.20;3.03;;;;;;;4.94;69.76;99157.13;5072115;28;20225;-76
2022/02/08 03:56:51;;;;;;;5.03;2.80;;;;;;;4.86;69.58;99146.50;5075061;28;20028;-76
2022/02/08 03:59:17;;;;;;;4.40;2.70;;;;;;;4.99;70.21;99159.31;5074429;28;20092;-76
2022/02/08 04:06:56;;;;;;;5.73;2.87;;;;;;;5.03;69.96;99176.44;5068955;28;20064;-77
2022/02/08 04:09:22;;;;;;;4.80;2.60;;;;;;;4.96;70.00;99193.72;5068460;28;20118;-77
2022/02/08 04:11:59;;;;;;;9.23;2.67;;;;;;;4.96;70.03;99199.78;5067128;28;20092;-77
2022/02/08 04:17:31;;;;;;;3.73;2.33;;;;;;;4.96;69.62;99233.06;5069797;28;20037;-77
2022/02/08 04:34:00;;;;;;;4.47;2.60;;;;;;;4.91;68.80;99257.09;5069000;28;20139;-77
2022/02/08 04:36:54;;;;;;;3.40;1.97;;;;;;;4.77;68.26;99265.38;5071846;28;20249;-77
2022/02/08 04:39:36;;;;;;;6.13;3.87;;;;;;;4.91;68.61;99259.72;5072068;28;20256;-77
2022/02/08 04:42:13;;;;;;;3.07;2.30;;;;;;;4.58;68.74;99223.41;5066235;28;20045;-77
2022/02/08 04:44:46;;;;;;;5.70;2.47;;;;;;;4.61;69.21;99252.78;5071743;28;20060;-77
2022/02/08 04:47:20;;;;;;;4.33;2.20;;;;;;;4.73;68.74;99250.88;5069355;28;20314;-77
2022/02/08 04:49:46;;;;;;;3.73;2.50;;;;;;;4.74;68.36;99252.53;5071271;28;20043;-76
2022/02/08 04:52:14;;;;;;;5.10;2.40;;;;;;;4.63;68.97;99250.03;5066463;28;20024;-76
2022/02/08 04:57:30;;;;;;;4.25;2.25;;;;;;;4.38;68.82;99231.25;5068978;28;20067;-77
2022/02/08 05:35:36;;;;;;;5.55;2.97;;;;;;;4.48;67.34;99365.78;5065993;28;20039;-76
2022/02/08 05:43:38;;;;;;;5.57;2.77;;;;;;;4.91;68.13;99401.38;5073581;28;20028;-79
2022/02/08 05:46:42;;;;;;;4.85;2.65;;;;;;;4.87;65.14;99388.66;5069601;28;20104;-79
2022/02/08 05:48:52;;;;;;;3.10;2.35;;;;;;;4.90;65.47;99415.47;5072764;28;20098;-79
2022/02/08 05:51:21;;;;;;;4.43;2.60;;;;;;;4.78;65.46;99411.28;5065467;28;20035;-79
2022/02/08 05:53:47;;;;;;;5.73;2.80;;;;;;;5.03;64.78;99447.53;5068256;28;20323;-77
2022/02/08 05:56:14;;;;;;;3.75;2.00;;;;;;;4.89;64.43;99447.91;5070290;28;20043;-77
2022/02/08 05:58:43;;;;;;;7.23;2.40;;;;;;;4.79;65.03;99442.63;5070732;28;20059;-76
2022/02/08 06:01:09;;;;;;;8.25;3.03;;;;;;;4.99;64.71;99476.81;5066230;28;20037;-77
2022/02/08 06:03:35;;;;;;;4.93;2.57;;;;;;;5.08;64.59;99482.09;5066848;28;20349;-76
2022/02/08 06:06:00;;;;;;;8.43;4.22;;;;;;;5.11;64.11;99497.56;5069286;28;20036;-77
2022/02/08 06:08:26;;;;;;;7.30;2.57;;;;;;;4.87;63.23;99501.47;5070977;28;20028;-79
2022/02/08 06:11:01;;;;;;;4.53;2.50;;;;;;;4.78;64.34;99496.06;5066748;28;20075;-79
2022/02/08 06:13:27;;;;;;;5.68;2.50;;;;;;;4.90;63.85;99515.16;5068285;28;20059;-79
2022/02/08 06:16:00;;;;;;;4.43;2.50;;;;;;;4.95;63.89;99522.63;5069875;28;20025;-79
2022/02/08 06:18:30;;;;;;;4.32;3.00;;;;;;;4.99;63.80;99537.16;5071228;28;20036;-79
2022/02/08 06:20:56;;;;;;;11.77;4.23;;;;;;;4.92;63.46;99539.47;5066209;28;20047;-79
2022/02/08 06:23:21;;;;;;;7.80;4.00;;;;;;;4.96;64.15;99527.75;5068087;28;20243;-76
2022/02/08 06:25:47;;;;;;;8.67;4.60;;;;;;;4.99;63.52;99524.88;5073012;28;20078;-76
2022/02/08 06:28:13;;;;;;;8.83;3.73;;;;;;;5.01;62.99;99540.47;5073814;28;20083;-76
2022/02/08 06:30:39;;;;;;;5.03;2.40;;;;;;;5.06;63.48;99541.75;5069255;28;20319;-78
2022/02/08 06:33:06;;;;;;;8.07;3.90;;;;;;;5.11;63.89;99552.69;5069305;28;20017;-79
2022/02/08 06:35:33;;;;;;;6.00;3.53;;;;;;;5.07;64.13;99535.53;5072225;28;20275;-79
2022/02/08 06:38:01;;;;;;;13.45;5.30;;;;;;;5.23;62.91;99547.38;5075117;28;20433;-79
2022/02/08 06:40:27;;;;;;;11.88;4.85;;;;;;;5.07;63.17;99545.19;5074931;28;20048;-79
2022/02/08 06:43:02;;;;;;;6.70;3.03;;;;;;;5.08;63.23;99528.50;5069225;28;20053;-79
2022/02/08 06:45:28;;;;;;;7.68;3.83;;;;;;;4.89;64.29;99552.84;5072337;28;20077;-79
2022/02/08 06:47:53;;;;;;;7.33;3.17;;;;;;;4.90;64.28;99557.16;5073408;28;20036;-77
2022/02/08 06:50:19;;;;;;;6.07;3.63;;;;;;;5.07;63.90;99563.56;5076076;28;20349;-76
2022/02/08 06:52:45;;;;;;;6.07;2.70;;;;;;;5.08;62.90;99558.19;5076568;28;20044;-77
2022/02/08 06:55:11;;;;;;;7.43;4.27;;;;;;;4.94;62.90;99563.78;5075731;28;20055;-76
2022/02/08 06:57:48;;;;;;;5.30;3.03;;;;;;;5.20;63.26;99572.09;5069193;28;20028;-76
2022/02/08 07:00:17;;;;;;;10.70;5.87;;;;;;;5.09;64.34;99580.84;5068214;28;20335;-76
2022/02/08 07:02:42;;;;;;;9.80;5.43;;;;;;;5.10;64.01;99579.88;5067738;28;20048;-76
2022/02/08 07:05:08;;;;;;;14.17;6.70;;;;;;;4.94;65.50;99569.03;5068826;28;20048;-78
2022/02/08 07:07:33;;;;;;;9.77;5.53;;;;;;;5.01;64.47;99572.81;5068975;28;20032;-79
2022/02/08 07:09:59;;;;;;;21.30;10.03;;;;;;;5.07;65.17;99577.53;5072335;28;20230;-79
2022/02/08 07:12:24;;;;;;;20.73;10.30;;;;;;;5.06;65.25;99585.53;5065125;28;20327;-79
2022/02/08 07:14:49;;;;;;;16.80;7.77;;;;;;;5.18;65.42;99597.59;5067151;28;20067;-79
2022/02/08 07:17:15;;;;;;;9.60;4.60;;;;;;;5.11;65.08;99599.09;5066341;28;20319;-79
2022/02/08 07:19:41;;;;;;;5.83;3.70;;;;;;;4.94;64.89;99595.28;5069252;28;20047;-79
2022/02/08 07:22:06;;;;;;;9.00;5.23;;;;;;;5.02;65.73;99605.94;5069019;28;20044;-79
2022/02/08 07:24:32;;;;;;;7.53;3.30;;;;;;;5.16;64.08;99623.16;5074518;28;20021;-79
2022/02/08 07:26:57;;;;;;;4.17;2.73;;;;;;;5.00;64.19;99618.38;5073616;28;20040;-77
2022/02/08 07:29:23;;;;;;;6.40;3.47;;;;;;;5.07;63.79;99627.38;5074995;28;20036;-75
2022/02/08 07:31:56;;;;;;;7.53;3.20;;;;;;;5.01;64.56;99630.53;5074551;28;20060;-76
2022/02/08 07:34:39;;;;;;;7.53;4.47;;;;;;;5.16;64.58;99633.66;5072931;28;20099;-76
2022/02/08 07:37:20;;;;;;;5.77;3.43;;;;;;;5.11;63.82;99646.34;5072206;28;20128;-76
2022/02/08 07:39:51;;;;;;;6.73;3.97;;;;;;;5.31;63.87;99647.28;5076314;28;20031;-78
2022/02/08 07:42:16;;;;;;;6.50;3.23;;;;;;;5.16;64.19;99644.16;5076012;28;20411;-78
2022/02/08 07:44:42;;;;;;;4.43;3.30;;;;;;;5.23;64.33;99661.06;5076233;28;20354;-79
2022/02/08 07:47:07;;;;;;;5.53;3.27;;;;;;;5.11;64.65;99641.91;5078107;28;20044;-79
2022/02/08 07:49:36;;;;;;;7.45;3.92;;;;;;;5.04;63.57;99646.03;5080837;28;20051;-79
2022/02/08 07:52:02;;;;;;;9.18;3.90;;;;;;;5.00;63.84;99639.38;5080399;28;20028;-79
2022/02/08 07:54:28;;;;;;;5.72;3.38;;;;;;;5.17;63.13;99650.22;5079377;28;20318;-79
2022/02/08 07:56:53;;;;;;;7.13;3.63;;;;;;;5.42;62.76;99655.91;5081289;28;20044;-79
2022/02/08 07:59:19;;;;;;;8.67;3.30;;;;;;;5.39;63.28;99653.56;5080445;28;20033;-79
2022/02/08 08:01:44;;;;;;;6.73;3.07;;;;;;;5.38;62.48;99659.78;5080248;28;20218;-79
2022/02/08 08:04:09;;;;;;;9.30;4.00;;;;;;;5.35;61.74;99657.41;5079761;28;20103;-79
2022/02/08 08:06:36;;;;;;;4.72;3.00;;;;;;;5.35;61.99;99677.56;5081169;28;20095;-79
2022/02/08 08:09:02;;;;;;;6.07;3.90;;;;;;;5.34;62.57;99660.16;5078724;28;20253;-79
2022/02/08 08:11:35;;;;;;;6.57;3.80;;;;;;;5.42;62.55;99681.34;5080774;28;20095;-79
2022/02/08 08:14:02;;;;;;;15.37;3.60;;;;;;;5.33;61.42;99661.97;5079830;28;20025;-79
2022/02/08 08:22:10;;;;;;;;;;;;;;;5.69;61.75;99691.28;5076814;28;20229;-79
2022/02/08 08:24:35;;;;;;;6.50;3.80;;;;;;;5.65;61.29;99692.50;5080628;28;19916;-78
2022/02/08 08:27:01;;;;;;;5.68;3.08;;;;;;;5.61;59.48;99697.19;5077985;28;20070;-79
2022/02/08 08:29:26;;;;;;;5.33;2.90;;;;;;;5.56;60.11;99702.00;5080620;28;20070;-79
2022/02/08 08:31:52;;;;;;;9.57;4.57;;;;;;;5.60;60.09;99689.44;5079372;28;20024;-78
2022/02/08 08:34:18;;;;;;;6.25;3.50;;;;;;;5.62;60.97;99709.38;5078624;28;20227;-79
2022/02/08 08:36:46;;;;;;;8.57;3.58;;;;;;;5.61;61.39;99686.69;5080266;28;20282;-79
2022/02/08 08:39:12;;;;;;;6.13;2.80;;;;;;;5.75;59.99;99703.88;5079057;28;20087;-79
2022/02/08 08:41:46;;;;;;;5.57;2.60;;;;;;;5.50;59.44;99684.16;5078699;28;20032;-79
2022/02/08 08:49:32;;;;;;;6.22;3.30;;;;;;;6.18;58.84;99742.25;5079894;28;20043;-79
2022/02/08 08:51:58;;;;;;;7.13;3.25;;;;;;;6.02;59.30;99740.94;5079887;28;20016;-79
2022/02/08 08:54:23;;;;;;;4.85;2.78;;;;;;;6.03;58.97;99752.28;5080881;28;20104;-79
2022/02/08 08:56:50;;;;;;;10.57;4.00;;;;;;;5.96;58.11;99735.41;5078293;28;20024;-79
2022/02/08 08:59:16;;;;;;;10.90;4.47;;;;;;;6.10;57.99;99742.91;5078517;28;20037;-79
2022/02/08 09:01:43;;;;;;;13.38;6.97;;;;;;;6.24;58.17;99747.81;5074230;28;20039;-79
2022/02/08 09:04:09;;;;;;;13.88;6.20;;;;;;;6.34;57.75;99753.13;5073978;28;20322;-79
2022/02/08 09:06:36;;;;;;;15.93;6.43;;;;;;;5.97;58.03;99706.34;5072443;28;20037;-79
2022/02/08 09:09:12;;;;;;;10.05;5.40;;;;;;;6.23;57.64;99750.56;5074327;28;20021;-77
2022/02/08 09:11:50;;;;;;;12.68;5.43;;;;;;;6.31;58.27;99750.75;5074908;28;20342;-78
2022/02/08 09:14:19;;;;;;;12.02;5.55;;;;;;;6.42;57.84;99755.06;5074532;28;20025;-79
2022/02/08 09:16:54;;;;;;;10.65;4.13;;;;;;;6.56;57.94;99744.16;5072943;28;20034;-79
2022/02/08 09:27:57;;;;;;;5.05;3.30;;;;;;;6.69;54.77;99769.25;5072428;28;20214;-79
2022/02/08 09:30:33;;;;;;;12.07;5.60;;;;;;;6.71;55.54;99764.66;5070776;28;20633;-79
2022/02/08 09:32:58;;;;;;;7.85;3.65;;;;;;;6.72;54.84;99752.34;5072809;28;20299;-79
2022/02/08 09:35:24;;;;;;;13.40;4.38;;;;;;;7.14;54.96;99768.69;5075526;28;20040;-79
2022/02/08 09:37:49;;;;;;;7.78;3.60;;;;;;;7.20;54.35;99767.31;5072346;28;20069;-79
2022/02/08 09:40:21;;;;;;;7.47;2.90;;;;;;;7.26;54.34;99774.66;5074203;28;20064;-79
2022/02/08 09:42:48;;;;;;;5.30;2.03;;;;;;;7.17;53.73;99770.22;5075049;28;20289;-79
2022/02/08 09:45:19;;;;;;;5.28;2.65;;;;;;;7.45;53.11;99772.03;5073739;28;20044;-79
2022/02/08 09:47:59;;;;;;;57.70;4.82;;;;;;;7.52;51.78;99783.66;5072061;28;20346;-79
2022/02/08 09:50:28;;;;;;;35.38;5.25;;;;;;;7.40;52.88;99783.94;5073887;28;20373;-79
2022/02/08 09:53:00;;;;;;;16.10;3.80;;;;;;;7.27;52.17;99769.25;5072368;28;20025;-79
2022/02/08 09:55:30;;;;;;;7.20;2.10;;;;;;;7.13;50.44;99772.31;5075456;28;20086;-79
2022/02/08 09:57:56;;;;;;;7.93;2.28;;;;;;;6.69;50.67;99748.19;5073361;28;20040;-79
2022/02/08 10:29:17;;;;;;;8.60;2.67;;;;;;;7.36;49.74;99764.97;5158498;27;20031;-79
2022/02/08 10:32:03;;;;;;;7.25;2.00;;;;;;;7.20;46.23;99768.13;5158697;27;20054;-75
2022/02/08 10:40:01;;;;;;;7.35;2.20;;;;;;;6.98;47.70;99739.47;5157513;27;20318;-75
2022/02/08 10:42:28;;;;;;;9.45;2.72;;;;;;;7.19;48.31;99773.53;5158526;27;20090;-76
2022/02/08 10:44:54;;;;;;;6.22;2.38;;;;;;;7.39;50.25;99772.59;5156532;27;20034;-76
2022/02/08 10:47:40;;;;;;;6.97;2.80;;;;;;;7.38;48.94;99764.81;5157242;27;20072;-76
2022/02/08 10:50:08;;;;;;;7.82;2.95;;;;;;;7.45;47.30;99760.66;5158573;27;20027;-78
2022/02/08 10:52:35;;;;;;;8.48;3.50;;;;;;;7.53;46.39;99766.03;5157972;27;20042;-77
2022/02/08 10:55:11;;;;;;;4.57;2.55;;;;;;;7.44;47.41;99738.75;5157151;27;20031;-76
2022/02/08 10:57:48;;;;;;;3.15;2.22;;;;;;;7.62;47.67;99758.13;5159412;27;20228;-77
2022/02/08 11:00:20;;;;;;;5.72;2.75;;;;;;;7.53;46.92;99744.97;5158101;27;20072;-76
2022/02/08 11:02:48;;;;;;;3.92;1.75;;;;;;;7.43;46.30;99738.88;5157216;27;20312;-77
2022/02/08 11:05:39;;;;;;;4.07;2.13;;;;;;;7.41;46.62;99735.56;5158101;27;20316;-79
2022/02/08 11:21:05;;;;;;;3.78;2.20;;;;;;;7.56;49.10;99757.84;5151785;27;20766;-76
2022/02/08 11:23:35;;;;;;;4.68;2.58;;;;;;;7.61;47.82;99738.00;5152115;27;20022;-77
2022/02/08 11:26:02;;;;;;;4.05;1.60;;;;;;;7.61;45.12;99756.44;5146740;27;20043;-77
2022/02/08 11:28:51;;;;;;;2.70;1.60;;;;;;;7.70;45.78;99752.13;5138854;27;20023;-76
2022/02/08 11:45:08;;;;;;;7.22;2.72;;;;;;;7.71;47.32;99745.88;5135882;27;20046;-77
2022/02/08 11:50:38;;;;;;;11.88;3.38;;;;;;;7.69;45.77;99732.84;5138431;27;20331;-77
2022/02/08 11:58:40;;;;;;;6.30;2.53;;;;;;;7.59;46.44;99736.47;5138733;27;20245;-77
2022/02/08 12:01:05;;;;;;;6.07;2.45;;;;;;;7.60;44.98;99732.88;5133995;27;20213;-79
2022/02/08 12:08:50;;;;;;;3.30;1.33;;;;;;;7.77;45.69;99744.47;5136982;27;20084;-76
2022/02/08 12:11:44;;;;;;;8.48;2.63;;;;;;;7.30;45.99;99705.78;5136167;27;20031;-78
2022/02/08 12:28:58;;;;;;;3.97;1.67;;;;;;;7.43;46.52;99773.13;5139012;27;20152;-77
2022/02/08 12:31:23;;;;;;;3.42;1.70;;;;;;;7.41;46.60;99765.38;5137874;27;20043;-77
2022/02/08 12:55:40;;;;;;;7.25;2.80;;;;;;;7.49;44.17;99818.19;5137869;27;20019;-77
2022/02/08 13:14:52;;;;;;;9.35;3.80;;;;;;;7.33;47.08;99871.44;5136667;27;20031;-78
2022/02/08 14:06:29;;;;;;;8.32;3.42;;;;;;;7.30;49.23;99919.13;5135172;27;20019;-76
2022/02/08 14:19:21;;;;;;;10.88;2.90;;;;;;;7.12;50.08;99946.22;5140859;27;20038;-76
2022/02/08 14:21:57;;;;;;;6.00;2.47;;;;;;;7.19;49.19;99960.53;5140008;27;20019;-77
2022/02/08 14:29:52;;;;;;;12.77;3.70;;;;;;;7.06;47.28;99968.66;5139994;27;20038;-76
2022/02/08 15:09:33;;;;;;;8.20;3.10;;;;;;;6.89;46.31;99998.25;5142157;27;20071;-77
2022/02/08 15:12:09;;;;;;;7.75;2.25;;;;;;;6.79;45.87;99990.31;5144075;27;20249;-78
2022/02/08 15:14:44;;;;;;;6.80;2.60;;;;;;;6.84;45.27;100016.25;5142949;27;20242;-78
2022/02/08 15:17:09;;;;;;;10.60;2.85;;;;;;;6.90;45.60;100000.75;5136782;27;20317;-78
2022/02/08 15:19:35;;;;;;;7.85;3.00;;;;;;;6.98;46.03;100015.88;5135130;27;20031;-76
2022/02/08 15:22:01;;;;;;;6.63;2.65;;;;;;;6.92;46.81;100024.31;5135412;27;20019;-78
2022/02/08 15:24:27;;;;;;;8.18;2.60;;;;;;;6.67;45.37;100022.94;5136200;27;20015;-76
2022/02/08 15:26:53;;;;;;;8.70;3.63;;;;;;;6.81;47.21;100034.94;5136449;27;20042;-75
2022/02/08 15:29:19;;;;;;;13.60;4.38;;;;;;;6.95;47.19;100029.31;5136098;27;20034;-76
2022/02/08 15:31:45;;;;;;;27.98;7.70;;;;;;;6.80;48.58;100039.34;5135260;27;20030;-76
2022/02/08 15:34:11;;;;;;;13.40;4.50;;;;;;;6.55;49.01;100031.88;5136585;27;20371;-77
2022/02/08 15:36:37;;;;;;;11.95;4.03;;;;;;;6.51;47.98;100044.47;5132343;27;20272;-78
2022/02/08 15:39:08;;;;;;;5.85;3.15;;;;;;;6.33;47.29;99988.13;5136354;27;20034;-77
2022/02/08 15:41:39;;;;;;;7.13;3.20;;;;;;;6.69;47.30;100050.81;5137237;27;20031;-78
2022/02/08 15:44:15;;;;;;;8.77;3.40;;;;;;;6.51;47.40;100046.25;5133715;27;20059;-76
2022/02/08 15:46:41;;;;;;;7.28;3.47;;;;;;;6.54;47.46;100064.41;5134785;27;20099;-78
2022/02/08 15:49:07;;;;;;;14.07;4.40;;;;;;;6.50;48.27;100058.56;5135109;27;20344;-76
2022/02/08 15:51:43;;;;;;;8.00;3.50;;;;;;;6.76;47.86;100071.34;5137502;27;20197;-76
2022/02/08 15:56:56;;;;;;;6.82;3.10;;;;;;;6.78;46.77;100064.97;5135443;27;20034;-78
2022/02/08 16:07:42;;;;;;;34.80;12.35;;;;;;;6.51;46.26;100098.88;5134588;27;20087;-78
2022/02/08 16:10:19;;;;;;;29.73;9.65;;;;;;;6.46;46.27;100095.78;5135819;27;20019;-76
2022/02/08 16:15:38;;;;;;;7.13;3.67;;;;;;;6.73;46.42;100107.47;5101684;27;20038;-78
2022/02/08 16:18:12;;;;;;;14.95;6.40;;;;;;;6.53;47.62;100115.38;5134088;27;20400;-77
2022/02/08 16:21:02;;;;;;;35.97;11.40;;;;;;;6.24;47.80;100099.31;5137075;27;20058;-77
2022/02/08 16:26:29;;;;;;;9.80;4.07;;;;;;;6.67;48.60;100130.84;5132296;27;20108;-78
2022/02/08 16:29:15;;;;;;;7.93;3.35;;;;;;;6.34;48.67;100134.47;5133451;27;20057;-78
2022/02/08 16:53:18;;;;;;;21.10;8.23;;;;;;;6.43;51.40;100182.84;5133741;27;20029;-77
2022/02/08 16:55:58;;;;;;;15.80;7.70;;;;;;;6.29;51.76;100184.78;5135580;27;20059;-76
2022/02/08 16:58:57;;;;;;;14.82;7.68;;;;;;;6.23;51.43;100192.31;5135819;27;20245;-78
2022/02/08 17:01:19;;;;;;;11.52;5.50;;;;;;;6.18;51.46;100178.69;5130921;27;20054;-78
2022/02/08 17:03:49;;;;;;;12.63;5.43;;;;;;;6.37;50.90;100186.81;5135442;27;20799;-77
2022/02/08 17:06:23;;;;;;;14.88;6.25;;;;;;;6.32;50.68;100204.75;5132600;27;20435;-77
2022/02/08 17:08:54;;;;;;;10.48;4.55;;;;;;;6.33;50.27;100216.94;5133361;27;20054;-75
2022/02/08 17:11:26;;;;;;;12.93;5.55;;;;;;;6.16;50.13;100220.91;5134952;27;20027;-77
2022/02/08 17:14:16;;;;;;;10.82;4.50;;;;;;;6.30;49.47;100218.03;5135438;27;20028;-77
2022/02/08 17:46:23;;;;;;;14.10;4.65;;;;;;;5.76;51.68;100259.97;5124614;27;20339;-75
2022/02/08 17:48:50;;;;;;;11.18;4.22;;;;;;;5.65;51.85;100250.28;5127011;27;20090;-74
2022/02/08 17:51:15;;;;;;;31.27;9.95;;;;;;;5.77;51.69;100262.47;5127204;27;20034;-75
2022/02/08 17:53:41;;;;;;;16.38;7.43;;;;;;;5.87;52.70;100280.16;5127868;27;20034;-74
2022/02/08 17:56:07;;;;;;;15.05;4.97;;;;;;;5.84;51.62;100272.50;5125545;27;20035;-74
2022/02/08 17:58:33;;;;;;;17.65;5.20;;;;;;;5.98;51.02;100290.69;5126169;27;20023;-74
2022/02/08 18:00:59;;;;;;;13.70;5.75;;;;;;;5.97;50.56;100302.16;5128836;27;20031;-73
2022/02/08 18:03:25;;;;;;;13.20;5.93;;;;;;;5.60;49.93;100289.19;5125206;27;20349;-75
2022/02/08 18:05:50;;;;;;;19.63;6.25;;;;;;;5.78;49.83;100305.34;5129131;27;20039;-75
2022/02/08 18:08:19;;;;;;;12.40;4.80;;;;;;;5.82;49.91;100313.84;5132667;27;20031;-74
2022/02/08 18:10:48;;;;;;;11.77;4.20;;;;;;;5.72;50.50;100295.31;5130447;27;20111;-76
2022/02/08 18:13:17;;;;;;;8.37;4.00;;;;;;;5.86;50.54;100312.66;5127848;27;20076;-76
2022/02/08 18:15:43;;;;;;;12.75;3.95;;;;;;;5.74;50.76;100317.06;5124567;28;20034;-74
2022/02/08 18:18:20;;;;;;;10.40;4.15;;;;;;;5.69;50.43;100309.53;5140117;28;20236;-73
2022/02/08 18:20:51;;;;;;;6.10;3.08;;;;;;;5.64;50.64;100323.97;5129042;27;20020;-76
2022/02/08 19:22:04;;;;;;;18.73;6.20;;;;;;;5.16;53.39;100421.16;5138691;27;20090;-73
2022/02/08 19:24:29;;;;;;;14.45;6.10;;;;;;;5.17;53.21;100419.38;5134851;27;20383;-76
2022/02/08 19:26:58;;;;;;;13.53;6.53;;;;;;;5.18;52.61;100418.44;5135880;27;20056;-73
2022/02/08 19:29:26;;;;;;;28.63;12.03;;;;;;;5.09;53.65;100420.78;5137576;27;20039;-75
2022/02/08 19:31:53;;;;;;;17.80;7.53;;;;;;;4.85;53.50;100412.03;5135930;27;20313;-75
2022/02/08 19:34:19;;;;;;;16.35;6.38;;;;;;;5.11;53.33;100436.41;5135137;27;20253;-73
2022/02/08 19:36:45;;;;;;;13.23;5.00;;;;;;;5.21;53.09;100436.63;5138279;27;20255;-74
2022/02/08 19:39:12;;;;;;;6.50;3.47;;;;;;;5.27;52.58;100446.66;5134646;27;20072;-75
2022/02/08 19:41:38;;;;;;;9.80;3.57;;;;;;;5.04;53.31;100430.75;5135520;27;20039;-76
2022/02/08 19:44:09;;;;;;;9.50;4.17;;;;;;;4.98;53.34;100439.06;5134256;27;20328;-74
2022/02/08 19:46:35;;;;;;;7.97;3.90;;;;;;;4.98;53.60;100446.94;5137253;27;20031;-74